Time;durP1;ratioP1;P1;durP2;ratioP2;P2;SDS_P1;SDS_P2;PMS_P1;PMS_P2;Temp;Humidity;BMP_temperature;BMP_pressure;BME280_temperature;BME280_humidity;BME280_pressure;Samples;Min_cycle;Max_cycle;Signal;HPM_P1;HPM_P2
2021/11/23 00:00:09;;;;;;;20.40;13.48;;;0.30;99.90;;;;;;6286653;22;20034;-91
2021/11/23 00:02:56;;;;;;;20.38;13.93;;;0.20;99.90;;;;;;6288446;22;20084;-91
2021/11/23 00:05:49;;;;;;;21.67;13.70;;;0.20;99.90;;;;;;6309941;22;20112;-91
2021/11/23 00:08:38;;;;;;;24.48;14.77;;;0.10;99.90;;;;;;6290137;22;20019;-93
2021/11/23 00:11:28;;;;;;;21.30;14.52;;;0.00;99.90;;;;;;6288014;22;20110;-88
2021/11/23 00:14:15;;;;;;;23.92;14.88;;;0.00;99.90;;;;;;6310667;22;20027;-91
2021/11/23 00:17:03;;;;;;;24.30;15.45;;;-0.10;99.90;;;;;;6266403;22;20377;-91
2021/11/23 00:19:50;;;;;;;25.90;15.98;;;-0.10;99.90;;;;;;6288635;22;20027;-91
2021/11/23 00:22:37;;;;;;;25.35;16.50;;;-0.20;99.90;;;;;;6287967;22;20032;-91
2021/11/23 00:25:29;;;;;;;24.70;16.50;;;-0.30;99.90;;;;;;6287640;22;20073;-89
2021/11/23 00:28:16;;;;;;;24.20;15.60;;;-0.30;99.90;;;;;;6309221;22;20303;-91
2021/11/23 00:31:07;;;;;;;27.15;17.00;;;-0.40;99.90;;;;;;6269233;22;20027;-93
2021/11/23 00:33:56;;;;;;;29.92;18.23;;;-0.50;99.90;;;;;;6295426;22;20019;-91
2021/11/23 00:36:43;;;;;;;28.40;17.77;;;-0.60;99.90;;;;;;6292942;22;20023;-91
2021/11/23 00:39:31;;;;;;;31.40;19.38;;;-0.50;99.90;;;;;;6289342;22;20074;-91
2021/11/23 00:42:18;;;;;;;29.98;18.63;;;-0.50;99.90;;;;;;6309282;22;20058;-91
2021/11/23 00:45:07;;;;;;;31.90;19.67;;;-0.40;99.90;;;;;;6265722;22;20104;-90
2021/11/23 00:47:59;;;;;;;31.77;18.75;;;-0.50;99.90;;;;;;6288258;22;20020;-91
2021/11/23 00:50:49;;;;;;;;;;;-0.40;99.90;;;;;;6306959;22;20070;-91
2021/11/23 00:53:39;;;;;;;30.40;18.42;;;-0.50;99.90;;;;;;6309736;22;19934;-91
2021/11/23 00:56:29;;;;;;;30.42;19.05;;;-0.50;99.90;;;;;;6286689;22;20023;-90
2021/11/23 00:59:19;;;;;;;31.33;19.08;;;-0.50;99.90;;;;;;6287274;22;20059;-91
2021/11/23 01:02:08;;;;;;;33.70;19.77;;;-0.60;99.90;;;;;;6285752;22;20096;-91
2021/11/23 01:04:57;;;;;;;32.00;19.20;;;-0.70;99.90;;;;;;6310036;22;20027;-90
2021/11/23 01:07:44;;;;;;;32.72;20.65;;;-0.80;99.90;;;;;;6310320;22;20019;-90
2021/11/23 01:10:32;;;;;;;31.17;18.55;;;-0.80;99.90;;;;;;6264907;22;20030;-91
2021/11/23 01:13:21;;;;;;;30.58;19.33;;;-0.80;99.90;;;;;;6285528;22;20021;-90
2021/11/23 01:16:10;;;;;;;36.17;20.02;;;-1.00;99.90;;;;;;6308011;22;20265;-93
2021/11/23 01:19:00;;;;;;;34.50;20.70;;;-1.00;99.90;;;;;;6311088;22;20035;-89
2021/11/23 01:21:47;;;;;;;33.15;19.88;;;-1.00;99.90;;;;;;6267126;22;20019;-87
2021/11/23 01:24:37;;;;;;;36.03;20.73;;;-1.00;99.90;;;;;;6287812;22;20043;-91
2021/11/23 01:27:25;;;;;;;34.08;20.60;;;-1.10;99.90;;;;;;6308486;22;20038;-90
2021/11/23 01:30:13;;;;;;;38.22;21.42;;;-1.10;99.90;;;;;;6265332;22;20016;-91
2021/11/23 01:33:00;;;;;;;36.28;20.05;;;-1.10;99.90;;;;;;6286212;22;20082;-91
2021/11/23 01:35:47;;;;;;;37.72;22.30;;;-1.20;99.90;;;;;;6286975;22;20089;-92
2021/11/23 01:38:34;;;;;;;33.63;20.33;;;-1.30;99.90;;;;;;6266427;22;20532;-92
2021/11/23 01:41:23;;;;;;;36.78;20.83;;;-1.40;99.90;;;;;;6287398;22;20034;-93
2021/11/23 01:44:11;;;;;;;34.83;20.70;;;-1.50;99.90;;;;;;6288796;22;20069;-93
2021/11/23 01:46:58;;;;;;;37.88;21.35;;;-1.60;99.90;;;;;;6285882;22;20031;-92
2021/11/23 01:49:45;;;;;;;39.85;21.58;;;-1.60;99.90;;;;;;6267179;22;20050;-92
2021/11/23 01:52:33;;;;;;;35.65;20.88;;;-1.60;99.90;;;;;;6284863;22;20023;-91
2021/11/23 01:55:20;;;;;;;42.70;22.10;;;-1.70;99.90;;;;;;6309034;22;20108;-91
2021/11/23 01:58:10;;;;;;;36.40;20.85;;;-1.70;99.90;;;;;;6308205;22;20095;-92
2021/11/23 02:00:57;;;;;;;38.38;21.55;;;-1.70;99.90;;;;;;6283708;22;20027;-92
2021/11/23 02:03:45;;;;;;;36.80;21.50;;;-1.70;99.90;;;;;;6309609;22;20029;-91
2021/11/23 02:06:33;;;;;;;38.92;21.88;;;-1.60;99.90;;;;;;6307953;22;20108;-92
2021/11/23 02:09:23;;;;;;;38.45;22.10;;;-1.70;99.90;;;;;;6308525;22;20031;-89
2021/11/23 02:12:11;;;;;;;40.47;22.40;;;-1.70;99.90;;;;;;6264123;22;20287;-91
2021/11/23 02:14:58;;;;;;;41.55;22.17;;;-1.70;99.90;;;;;;6285991;22;20099;-92
2021/11/23 02:17:47;;;;;;;41.55;22.73;;;-1.70;99.90;;;;;;6306296;22;20027;-92
2021/11/23 02:20:34;;;;;;;40.08;22.60;;;-1.70;99.90;;;;;;6308805;22;20095;-91
2021/11/23 02:23:23;;;;;;;44.00;23.67;;;-1.70;99.90;;;;;;6285873;22;20027;-93
2021/11/23 02:26:10;;;;;;;43.72;22.35;;;-1.70;99.90;;;;;;6286101;22;20023;-90
2021/11/23 02:28:58;;;;;;;44.15;24.75;;;-1.60;99.90;;;;;;6265002;22;20019;-91
2021/11/23 02:31:45;;;;;;;45.70;24.17;;;-1.60;99.90;;;;;;6304883;22;20023;-91
2021/11/23 02:34:32;;;;;;;48.00;25.17;;;-1.70;99.90;;;;;;6286466;22;20092;-90
2021/11/23 02:37:22;;;;;;;48.75;26.00;;;-1.70;99.90;;;;;;6304721;22;20283;-91
2021/11/23 02:40:13;;;;;;;52.75;26.45;;;-1.70;99.90;;;;;;6265699;22;20031;-90
2021/11/23 02:43:04;;;;;;;53.45;27.70;;;-1.70;99.90;;;;;;6308200;22;20109;-90
2021/11/23 02:45:54;;;;;;;56.20;28.17;;;-1.70;99.90;;;;;;6305782;22;20031;-89
2021/11/23 02:48:42;;;;;;;50.80;27.10;;;-1.70;99.90;;;;;;6283668;22;20314;-90
2021/11/23 02:51:33;;;;;;;52.28;26.35;;;-1.70;99.90;;;;;;6262353;22;20043;-93
2021/11/23 02:54:20;;;;;;;54.05;26.95;;;-1.80;99.90;;;;;;6263853;22;20164;-92
2021/11/23 02:57:08;;;;;;;53.00;27.30;;;-1.80;99.90;;;;;;6244150;22;20050;-92
2021/11/23 02:59:56;;;;;;;44.08;22.80;;;-1.80;99.90;;;;;;6261999;22;20464;-91
2021/11/23 03:02:44;;;;;;;50.53;26.38;;;-1.80;99.90;;;;;;6305035;22;20051;-90
2021/11/23 03:05:32;;;;;;;51.58;25.08;;;-1.80;99.90;;;;;;6290419;22;20053;-90
2021/11/23 03:08:19;;;;;;;48.15;24.60;;;-1.80;99.90;;;;;;6289206;22;20050;-91
2021/11/23 03:11:09;;;;;;;49.40;26.85;;;-1.90;99.90;;;;;;6286052;22;20080;-93
2021/11/23 03:13:56;;;;;;;47.13;25.20;;;-1.90;99.90;;;;;;6265295;22;20101;-90
2021/11/23 03:16:44;;;;;;;50.45;24.58;;;-1.90;99.90;;;;;;6306733;22;20027;-91
2021/11/23 03:19:34;;;;;;;52.00;25.95;;;-1.90;99.90;;;;;;6307084;22;20085;-91
2021/11/23 03:22:21;;;;;;;53.67;27.63;;;-1.90;99.90;;;;;;6285530;22;20027;-93
2021/11/23 03:25:11;;;;;;;56.08;28.80;;;-1.80;99.90;;;;;;6285394;22;20023;-91
2021/11/23 03:27:58;;;;;;;56.80;28.15;;;-1.80;99.90;;;;;;6287983;22;20027;-92
2021/11/23 03:30:45;;;;;;;61.33;29.02;;;-1.70;99.90;;;;;;6242778;22;20303;-90
2021/11/23 03:33:33;;;;;;;57.67;27.42;;;-1.80;99.90;;;;;;6285550;22;20027;-90
2021/11/23 03:36:22;;;;;;;59.90;29.25;;;-1.80;99.90;;;;;;6264132;22;20020;-90
2021/11/23 03:39:09;;;;;;;57.03;28.30;;;-1.80;99.90;;;;;;6285539;22;20080;-91
2021/11/23 03:41:57;;;;;;;52.40;27.23;;;-1.80;99.90;;;;;;6285029;22;20050;-92
2021/11/23 03:44:50;;;;;;;57.40;29.88;;;-1.80;99.90;;;;;;6262927;22;20126;-91
2021/11/23 03:47:37;;;;;;;54.05;26.60;;;-1.90;99.90;;;;;;6284723;22;20023;-91
2021/11/23 03:50:27;;;;;;;51.33;27.48;;;-1.90;99.90;;;;;;6306879;22;20019;-91
2021/11/23 03:53:19;;;;;;;53.03;25.58;;;-1.90;99.90;;;;;;6285521;22;20126;-91
2021/11/23 03:56:06;;;;;;;53.43;27.13;;;-2.00;99.90;;;;;;6266737;22;20019;-91
2021/11/23 03:58:53;;;;;;;54.97;26.17;;;-2.10;99.90;;;;;;6286613;22;20092;-92
2021/11/23 04:01:45;;;;;;;55.20;27.02;;;-2.20;99.90;;;;;;6264423;22;20460;-91
2021/11/23 04:04:35;;;;;;;56.28;28.45;;;-2.20;99.90;;;;;;6304640;22;20102;-90
2021/11/23 04:07:23;;;;;;;60.25;28.73;;;-2.20;99.90;;;;;;6268978;22;20030;-91
2021/11/23 04:10:14;;;;;;;56.25;28.33;;;-2.30;99.90;;;;;;6284385;22;20019;-90
2021/11/23 04:13:02;;;;;;;58.55;29.17;;;-2.30;99.90;;;;;;6276907;22;20047;-90
2021/11/23 04:15:51;;;;;;;57.85;28.92;;;-2.40;99.90;;;;;;6256618;22;20027;-89
2021/11/23 04:18:39;;;;;;;57.97;27.67;;;-2.40;99.90;;;;;;6276695;22;20081;-89
2021/11/23 04:21:26;;;;;;;49.08;25.60;;;-2.40;99.90;;;;;;6265003;22;20338;-87
2021/11/23 04:24:13;;;;;;;48.72;25.42;;;-2.50;99.90;;;;;;6289538;22;20089;-89
2021/11/23 04:27:04;;;;;;;50.17;26.42;;;-2.50;99.90;;;;;;6292035;22;20396;-87
2021/11/23 04:29:53;;;;;;;45.67;25.45;;;-2.60;99.90;;;;;;6271697;22;20030;-90
2021/11/23 04:32:43;;;;;;;49.28;26.27;;;-2.60;99.90;;;;;;6291553;22;20023;-89
2021/11/23 04:35:33;;;;;;;53.80;27.63;;;-2.50;99.90;;;;;;6291640;22;20042;-87
2021/11/23 04:38:20;;;;;;;52.10;26.92;;;-2.50;99.90;;;;;;6279543;22;20011;-89
2021/11/23 04:41:08;;;;;;;50.85;26.52;;;-2.40;99.90;;;;;;6303058;22;20012;-91
2021/11/23 04:43:56;;;;;;;47.83;27.60;;;-2.30;99.90;;;;;;6298578;22;20039;-89
2021/11/23 04:46:48;;;;;;;50.25;27.08;;;-2.30;99.90;;;;;;6299434;22;20069;-91
2021/11/23 04:49:35;;;;;;;52.90;27.13;;;-2.40;99.90;;;;;;6297373;22;20069;-90
2021/11/23 04:52:26;;;;;;;54.00;26.52;;;-2.40;99.90;;;;;;6296837;22;20077;-91
2021/11/23 05:44:32;;;;;;;46.35;24.35;;;-3.10;99.90;;;;;;6201811;22;20027;-88
2021/11/23 05:47:24;;;;;;;45.40;24.63;;;-3.10;99.90;;;;;;6225580;23;20031;-88
2021/11/23 05:50:14;;;;;;;48.78;24.52;;;-3.10;99.90;;;;;;6224431;23;20340;-88
2021/11/23 05:53:02;;;;;;;44.00;25.23;;;-3.20;99.90;;;;;;6221410;23;20024;-87
2021/11/23 05:55:49;;;;;;;45.35;24.63;;;-3.20;99.90;;;;;;6220289;23;20031;-87
2021/11/23 05:58:36;;;;;;;43.72;24.33;;;-3.20;99.90;;;;;;6244258;22;20052;-87
2021/11/23 06:01:24;;;;;;;46.05;24.17;;;-3.20;99.90;;;;;;6201958;23;20277;-88
2021/11/23 06:04:12;;;;;;;45.78;25.52;;;-3.20;99.90;;;;;;6202750;23;20103;-88
2021/11/23 06:06:59;;;;;;;40.92;23.23;;;-3.20;99.90;;;;;;6202138;23;20042;-88
2021/11/23 06:09:48;;;;;;;43.28;24.58;;;-3.20;99.90;;;;;;6220990;23;20027;-88
2021/11/23 06:12:36;;;;;;;40.33;22.88;;;-3.30;99.90;;;;;;6224409;23;20024;-88
2021/11/23 06:15:24;;;;;;;42.13;23.52;;;-3.30;99.90;;;;;;6200429;23;20119;-88
2021/11/23 06:18:15;;;;;;;40.80;23.83;;;-3.30;99.90;;;;;;6243108;23;20020;-87
2021/11/23 06:21:05;;;;;;;40.78;24.27;;;-3.30;99.90;;;;;;6221350;23;20024;-87
2021/11/23 06:23:55;;;;;;;43.67;23.90;;;-3.30;99.90;;;;;;6203551;23;20028;-88
2021/11/23 06:26:44;;;;;;;45.78;24.00;;;-3.30;99.90;;;;;;6223778;23;20036;-86
2021/11/23 06:29:32;;;;;;;44.10;24.20;;;-3.30;99.90;;;;;;6200346;23;20121;-87
2021/11/23 06:32:19;;;;;;;48.88;24.52;;;-3.30;99.90;;;;;;6196128;23;20028;-88
2021/11/23 06:35:07;;;;;;;42.85;24.48;;;-3.40;99.90;;;;;;6195947;23;20036;-86
2021/11/23 06:37:54;;;;;;;41.63;23.90;;;-3.30;99.90;;;;;;6216766;23;20031;-85
2021/11/23 06:40:45;;;;;;;54.00;27.75;;;-3.30;99.90;;;;;;6197352;23;20028;-89
2021/11/23 06:43:32;;;;;;;49.42;26.50;;;-3.20;99.90;;;;;;6220932;23;20024;-90
2021/11/23 06:46:22;;;;;;;46.85;25.95;;;-3.30;99.90;;;;;;6243763;22;20319;-90
2021/11/23 06:49:12;;;;;;;42.65;24.35;;;-3.30;99.90;;;;;;6255605;22;20032;-90
2021/11/23 06:51:59;;;;;;;40.05;22.83;;;-3.40;99.90;;;;;;6252924;22;20032;-90
2021/11/23 06:54:46;;;;;;;42.17;24.13;;;-3.40;99.90;;;;;;6216517;22;20036;-91
2021/11/23 06:57:33;;;;;;;46.72;25.42;;;-3.30;99.90;;;;;;6253693;22;20058;-89
2021/11/23 07:00:21;;;;;;;43.20;24.10;;;-3.30;99.90;;;;;;6256809;22;20086;-89
2021/11/23 07:03:08;;;;;;;46.10;25.52;;;-3.40;99.90;;;;;;6259329;22;20081;-90
2021/11/23 07:05:56;;;;;;;47.05;25.00;;;-3.40;99.90;;;;;;6278913;22;20132;-90
2021/11/23 07:08:45;;;;;;;43.13;24.85;;;-3.40;99.90;;;;;;6235895;22;20023;-88
2021/11/23 07:11:32;;;;;;;45.17;24.60;;;-3.40;99.90;;;;;;6256485;22;20020;-89
2021/11/23 07:14:23;;;;;;;47.50;25.60;;;-3.30;99.90;;;;;;6256980;22;20093;-90
2021/11/23 07:17:10;;;;;;;42.15;23.33;;;-3.20;99.90;;;;;;6255164;22;20119;-90
2021/11/23 07:19:57;;;;;;;45.60;25.20;;;-3.20;99.90;;;;;;6236601;22;20024;-89
2021/11/23 07:22:45;;;;;;;48.20;25.30;;;-3.10;99.90;;;;;;6255825;22;20042;-90
2021/11/23 07:25:33;;;;;;;46.50;25.83;;;-3.10;99.90;;;;;;6255943;22;20023;-89
2021/11/23 07:28:23;;;;;;;47.08;26.83;;;-2.90;99.90;;;;;;6257395;22;20035;-91
2021/11/23 07:31:13;;;;;;;45.72;25.25;;;-2.90;99.90;;;;;;6254898;22;20069;-92
2021/11/23 07:34:00;;;;;;;48.05;26.13;;;-2.80;99.90;;;;;;6277282;22;20299;-91
2021/11/23 07:36:48;;;;;;;52.38;29.10;;;-2.70;99.90;;;;;;6238735;22;20075;-89
2021/11/23 07:39:37;;;;;;;49.40;27.60;;;-2.70;99.90;;;;;;6235134;22;20028;-90
2021/11/23 07:42:27;;;;;;;50.72;28.33;;;-2.70;99.90;;;;;;6276399;22;20035;-89
2021/11/23 07:45:19;;;;;;;50.67;28.20;;;-2.70;99.90;;;;;;6251902;22;20057;-88
2021/11/23 07:48:08;;;;;;;54.17;29.33;;;-2.60;99.90;;;;;;6255376;22;20023;-90
2021/11/23 07:50:58;;;;;;;53.03;27.65;;;-2.60;99.90;;;;;;6276454;22;20042;-91
2021/11/23 07:53:48;;;;;;;57.28;30.60;;;-2.50;99.90;;;;;;6254223;22;20072;-89
2021/11/23 07:56:38;;;;;;;56.22;29.48;;;-2.40;99.90;;;;;;6237752;22;20024;-88
2021/11/23 07:59:26;;;;;;;57.10;29.63;;;-2.30;99.90;;;;;;6255818;22;20027;-89
2021/11/23 08:02:15;;;;;;;58.08;28.17;;;-2.10;99.90;;;;;;6254851;22;20355;-91
2021/11/23 08:05:02;;;;;;;62.45;32.78;;;-2.00;99.90;;;;;;6252628;22;20257;-90
2021/11/23 08:07:50;;;;;;;60.30;31.88;;;-1.80;99.90;;;;;;6255568;22;20027;-91
2021/11/23 08:10:37;;;;;;;62.45;32.30;;;-1.60;99.90;;;;;;6257065;22;20020;-91
2021/11/23 08:13:30;;;;;;;63.55;34.08;;;-1.40;99.90;;;;;;6239147;22;20040;-89
2021/11/23 08:16:17;;;;;;;70.43;34.67;;;-1.20;99.90;;;;;;6261716;22;20019;-89
2021/11/23 08:19:09;;;;;;;68.57;35.42;;;-0.90;99.90;;;;;;6235931;22;20458;-92
2021/11/23 08:21:57;;;;;;;67.78;34.25;;;-0.80;99.90;;;;;;6232427;22;20307;-91
2021/11/23 08:24:47;;;;;;;65.78;36.45;;;-0.60;99.90;;;;;;6252528;22;20028;-91
2021/11/23 08:27:35;;;;;;;72.07;35.70;;;-0.30;99.90;;;;;;6277233;22;20027;-90
2021/11/23 08:30:25;;;;;;;62.10;34.42;;;-0.10;99.90;;;;;;6234678;22;20027;-92
2021/11/23 08:33:13;;;;;;;60.25;32.90;;;0.10;99.90;;;;;;6274929;22;20035;-92
2021/11/23 08:36:05;;;;;;;63.63;34.22;;;0.20;99.90;;;;;;6253357;22;20024;-91
2021/11/23 08:38:52;;;;;;;57.05;32.47;;;0.50;99.90;;;;;;6253937;22;20023;-91
2021/11/23 08:41:40;;;;;;;56.63;31.95;;;0.80;99.90;;;;;;6252295;22;20027;-92
2021/11/23 08:44:27;;;;;;;55.72;30.88;;;1.00;99.90;;;;;;6254704;22;20035;-90
2021/11/23 08:47:15;;;;;;;49.33;29.85;;;1.20;99.90;;;;;;6234312;22;20020;-93
2021/11/23 08:50:06;;;;;;;44.75;27.98;;;1.20;99.90;;;;;;6274912;22;20019;-91
2021/11/23 08:52:57;;;;;;;41.45;23.98;;;1.20;99.90;;;;;;6256149;22;20034;-91
2021/11/23 08:55:47;;;;;;;34.75;22.17;;;1.20;99.90;;;;;;6214743;22;20024;-89
2021/11/23 08:58:36;;;;;;;35.83;20.13;;;1.30;99.90;;;;;;6277358;22;20019;-90
2021/11/23 09:01:27;;;;;;;28.70;19.13;;;1.30;99.90;;;;;;6255974;22;20038;-91
2021/11/23 09:04:18;;;;;;;21.95;14.45;;;1.50;99.90;;;;;;6257299;22;20027;-92
2021/11/23 09:07:14;;;;;;;28.15;16.90;;;1.50;99.90;;;;;;6256462;22;20055;-92
2021/11/23 09:10:03;;;;;;;28.38;16.33;;;1.50;99.90;;;;;;6255943;22;20020;-92
2021/11/23 09:12:56;;;;;;;25.33;17.02;;;1.40;99.90;;;;;;6256445;22;20024;-91
2021/11/23 09:15:46;;;;;;;22.10;16.98;;;1.40;99.90;;;;;;6278331;22;20030;-91
2021/11/23 09:18:33;;;;;;;22.27;15.73;;;1.60;99.90;;;;;;6237869;22;20024;-91
2021/11/23 09:21:26;;;;;;;21.50;13.85;;;2.40;99.90;;;;;;6235294;22;20042;-91
2021/11/23 09:24:14;;;;;;;14.32;11.95;;;3.60;99.90;;;;;;6277077;22;20028;-90
2021/11/23 09:27:03;;;;;;;11.43;9.60;;;4.60;99.90;;;;;;6257534;22;20047;-90
2021/11/23 09:29:50;;;;;;;10.82;8.13;;;5.60;99.90;;;;;;6255293;22;20039;-92
2021/11/23 09:32:38;;;;;;;10.65;8.70;;;6.30;99.90;;;;;;6255245;22;20398;-92
2021/11/23 09:35:26;;;;;;;9.50;8.50;;;6.90;99.90;;;;;;6235049;22;20594;-91
2021/11/23 09:38:13;;;;;;;11.70;8.05;;;7.20;99.90;;;;;;6276786;22;20028;-92
2021/11/23 09:41:01;;;;;;;12.23;7.78;;;7.50;99.90;;;;;;6235260;22;20031;-91
2021/11/23 09:43:48;;;;;;;9.25;7.57;;;7.80;99.90;;;;;;6236605;22;20020;-90
2021/11/23 09:46:38;;;;;;;8.88;7.53;;;8.10;98.00;;;;;;6220468;22;20046;-92
2021/11/23 09:49:28;;;;;;;10.20;7.50;;;8.40;95.20;;;;;;6263334;22;20023;-91
2021/11/23 09:52:18;;;;;;;8.23;7.10;;;8.60;95.60;;;;;;6237450;22;20312;-89
2021/11/23 09:55:13;;;;;;;11.82;7.80;;;8.90;91.60;;;;;;6236702;22;20037;-91
2021/11/23 09:58:00;;;;;;;9.90;7.00;;;9.80;92.20;;;;;;6255177;22;20039;-92
2021/11/23 10:00:51;;;;;;;8.98;7.57;;;10.00;89.40;;;;;;6279498;22;20023;-90
2021/11/23 10:03:44;;;;;;;8.35;7.40;;;10.20;85.50;;;;;;6283033;22;20023;-93
2021/11/23 10:06:32;;;;;;;10.77;6.75;;;10.40;84.60;;;;;;6283597;22;20094;-92
2021/11/23 10:09:36;;;;;;;9.18;6.47;;;9.90;82.20;;;;;;6263622;22;20426;-90
2021/11/23 10:12:38;;;;;;;7.90;7.10;;;9.80;85.60;;;;;;6281995;22;20019;-92
2021/11/23 10:15:27;;;;;;;8.90;6.45;;;9.70;84.70;;;;;;6262981;22;20155;-89
2021/11/23 10:18:23;;;;;;;12.98;8.20;;;10.00;82.40;;;;;;6287611;22;20303;-91
2021/11/23 10:21:20;;;;;;;7.90;6.47;;;10.20;81.50;;;;;;6256762;22;20051;-92
2021/11/23 10:24:12;;;;;;;7.55;6.10;;;10.40;78.90;;;;;;6257490;22;20102;-91
2021/11/23 10:27:16;;;;;;;7.37;6.27;;;10.80;78.00;;;;;;6262096;22;20023;-92
2021/11/23 10:30:08;;;;;;;9.15;6.53;;;10.70;77.80;;;;;;6260737;22;20031;-93
2021/11/23 10:32:59;;;;;;;8.05;6.75;;;11.00;76.10;;;;;;6256066;22;20028;-93
2021/11/23 10:35:50;;;;;;;9.55;6.45;;;11.10;74.80;;;;;;6259691;22;20027;-91
2021/11/23 10:38:43;;;;;;;7.50;6.22;;;11.30;73.10;;;;;;6282783;22;20153;-92
2021/11/23 10:41:39;;;;;;;9.20;6.40;;;11.30;72.10;;;;;;6263471;22;20028;-92
2021/11/23 10:59:31;;;;;;;9.70;5.72;;;11.40;70.20;;;;;;6274880;22;20704;-89
2021/11/23 11:02:19;;;;;;;8.60;6.50;;;11.90;68.40;;;;;;6250183;22;20037;-90
2021/11/23 11:05:09;;;;;;;6.30;5.70;;;11.90;68.00;;;;;;6233321;22;20058;-89
2021/11/23 11:08:00;;;;;;;8.25;6.18;;;11.20;68.50;;;;;;6251426;22;20149;-88
2021/11/23 11:10:48;;;;;;;6.18;5.38;;;11.00;69.40;;;;;;6273502;22;20414;-89
2021/11/23 11:13:37;;;;;;;6.70;5.70;;;11.10;70.00;;;;;;6278413;22;20031;-90
2021/11/23 11:16:27;;;;;;;8.35;6.10;;;11.30;69.20;;;;;;6232591;22;20016;-89
2021/11/23 11:19:18;;;;;;;7.05;5.50;;;11.90;67.40;;;;;;6275774;22;20065;-88
2021/11/23 11:22:07;;;;;;;9.00;5.47;;;11.90;66.70;;;;;;6232647;22;20024;-87
2021/11/23 11:25:08;;;;;;;7.63;5.50;;;12.00;66.20;;;;;;6212214;22;20034;-90
2021/11/23 11:27:58;;;;;;;8.43;5.95;;;12.20;65.00;;;;;;6250081;22;20089;-88
2021/11/23 11:30:51;;;;;;;8.70;5.63;;;12.90;64.40;;;;;;6254763;22;20418;-91
2021/11/23 11:33:41;;;;;;;6.38;5.25;;;12.60;62.00;;;;;;6252220;22;20027;-90
2021/11/23 11:36:42;;;;;;;5.75;5.07;;;12.10;63.00;;;;;;6233085;22;20029;-89
2021/11/23 11:39:40;;;;;;;6.43;5.32;;;11.70;63.80;;;;;;6252790;22;20078;-90
2021/11/23 11:42:28;;;;;;;8.05;5.00;;;11.60;66.30;;;;;;6252061;22;20423;-89
2021/11/23 11:45:17;;;;;;;5.78;5.13;;;12.00;64.50;;;;;;6277492;22;20426;-87
2021/11/23 11:48:38;;;;;;;5.88;4.97;;;12.70;61.70;;;;;;6254920;22;20102;-89
2021/11/23 11:51:34;;;;;;;5.95;4.80;;;12.60;61.00;;;;;;6252258;22;20099;-88
2021/11/23 11:54:25;;;;;;;7.07;5.40;;;12.60;62.20;;;;;;6253474;22;20058;-88
2021/11/23 11:57:39;;;;;;;6.93;4.93;;;12.60;62.60;;;;;;6235236;22;20089;-85
2021/11/23 12:00:35;;;;;;;5.85;5.25;;;12.70;60.00;;;;;;6284448;22;20032;-89
2021/11/23 12:03:23;;;;;;;7.53;4.85;;;12.80;60.40;;;;;;6256073;22;20027;-88
2021/11/23 12:06:13;;;;;;;6.50;4.85;;;12.90;60.20;;;;;;6261117;22;20035;-89
2021/11/23 12:09:27;;;;;;;6.70;4.70;;;13.80;58.30;;;;;;6244470;22;20058;-90
2021/11/23 12:12:15;;;;;;;8.15;5.10;;;13.50;58.10;;;;;;6282943;22;20023;-91
2021/11/23 12:15:30;;;;;;;6.68;4.93;;;13.50;57.90;;;;;;6262796;22;20019;-91
2021/11/23 12:18:47;;;;;;;5.70;5.07;;;13.20;59.00;;;;;;6262845;22;20020;-92
2021/11/23 12:22:02;;;;;;;5.85;4.50;;;13.10;58.00;;;;;;6221597;23;20057;-91
2021/11/23 12:25:00;;;;;;;8.23;5.38;;;13.10;58.50;;;;;;6190081;23;20032;-85
2021/11/23 12:27:49;;;;;;;10.43;5.75;;;12.60;60.00;;;;;;6189423;23;20047;-86
2021/11/23 12:30:36;;;;;;;9.05;5.47;;;12.50;59.70;;;;;;6170207;23;20136;-89
2021/11/23 12:33:24;;;;;;;7.03;4.93;;;12.30;60.10;;;;;;6197094;23;20109;-91
2021/11/23 12:36:15;;;;;;;5.70;5.10;;;12.90;59.60;;;;;;6222481;23;20148;-90
2021/11/23 12:39:16;;;;;;;5.03;4.53;;;12.70;59.70;;;;;;6210445;23;20112;-88
2021/11/23 12:42:15;;;;;;;8.02;4.57;;;12.90;58.80;;;;;;6215268;22;20032;-91
2021/11/23 12:45:05;;;;;;;5.53;4.75;;;12.20;59.40;;;;;;6214215;23;20009;-91
2021/11/23 12:47:55;;;;;;;5.95;5.28;;;12.10;61.20;;;;;;6194389;23;20014;-93
2021/11/23 12:50:47;;;;;;;5.47;4.60;;;12.10;60.80;;;;;;6210824;23;20024;-91
2021/11/23 12:53:46;;;;;;;5.25;4.30;;;12.50;59.50;;;;;;6261449;22;20023;-92
2021/11/23 12:56:48;;;;;;;5.72;4.30;;;12.70;58.60;;;;;;6265198;22;20027;-89
2021/11/23 12:59:42;;;;;;;8.18;4.18;;;13.10;58.50;;;;;;6291077;22;20024;-93
2021/11/23 13:02:47;;;;;;;5.85;4.25;;;13.20;56.30;;;;;;6292033;22;20027;-90
2021/11/23 13:05:35;;;;;;;6.10;4.20;;;13.00;57.00;;;;;;6268938;22;20062;-90
2021/11/23 13:08:27;;;;;;;6.65;4.38;;;13.40;57.20;;;;;;6267008;22;20071;-91
2021/11/23 13:11:22;;;;;;;8.20;5.10;;;13.40;55.90;;;;;;6256722;22;20031;-91
2021/11/23 13:14:12;;;;;;;16.95;5.20;;;13.00;55.90;;;;;;6259936;22;20024;-89
2021/11/23 13:17:03;;;;;;;3.67;3.27;;;12.90;56.40;;;;;;6260579;22;20038;-93
2021/11/23 13:19:55;;;;;;;5.43;4.47;;;13.30;55.80;;;;;;6257822;22;20079;-89
2021/11/23 13:22:48;;;;;;;8.32;4.95;;;13.70;55.50;;;;;;6257562;22;20024;-88
2021/11/23 13:25:36;;;;;;;8.45;4.82;;;13.70;54.60;;;;;;6290681;22;20035;-92
2021/11/23 13:28:26;;;;;;;7.13;4.97;;;13.40;54.60;;;;;;6282544;22;20023;-90
2021/11/23 13:31:19;;;;;;;6.90;5.35;;;13.20;54.50;;;;;;6252602;22;20031;-88
2021/11/23 13:34:09;;;;;;;7.72;5.00;;;13.20;55.20;;;;;;6274402;22;20323;-89
2021/11/23 13:36:56;;;;;;;6.13;4.40;;;12.60;56.00;;;;;;6254813;22;20027;-91
2021/11/23 13:39:48;;;;;;;6.32;4.75;;;12.90;56.20;;;;;;6231581;22;20322;-89
2021/11/23 13:42:35;;;;;;;7.03;4.53;;;13.00;55.20;;;;;;6232334;22;20024;-86
2021/11/23 13:45:23;;;;;;;5.35;3.85;;;13.20;55.00;;;;;;6233775;22;20089;-91
2021/11/23 13:48:13;;;;;;;6.32;4.35;;;13.10;54.70;;;;;;6252175;22;20081;-88
2021/11/23 13:51:04;;;;;;;5.53;4.35;;;12.60;55.80;;;;;;6250479;22;20096;-86
2021/11/23 13:53:56;;;;;;;7.30;4.93;;;12.50;55.80;;;;;;6251089;22;20115;-87
2021/11/23 13:56:56;;;;;;;6.70;4.70;;;12.70;56.60;;;;;;6250739;22;20043;-85
2021/11/23 14:00:09;;;;;;;4.28;3.88;;;12.90;55.10;;;;;;6252493;22;20023;-88
2021/11/23 14:03:04;;;;;;;4.85;4.13;;;13.20;54.20;;;;;;6252878;22;20058;-87
2021/11/23 14:06:04;;;;;;;4.13;3.72;;;13.10;53.90;;;;;;6254260;22;20092;-88
2021/11/23 14:09:03;;;;;;;4.22;3.20;;;12.60;53.80;;;;;;6234032;22;20394;-90
2021/11/23 14:12:01;;;;;;;4.05;3.20;;;12.30;54.30;;;;;;6251485;22;20067;-91
2021/11/23 14:15:07;;;;;;;8.15;4.07;;;12.40;54.60;;;;;;6252058;22;20027;-88
2021/11/23 14:17:56;;;;;;;4.38;3.30;;;12.00;54.40;;;;;;6250747;22;20399;-87
2021/11/23 14:20:43;;;;;;;6.47;4.55;;;11.90;55.30;;;;;;6251646;22;20028;-88
2021/11/23 14:23:39;;;;;;;10.90;2.85;;;12.00;54.80;;;;;;6274019;22;20031;-87
2021/11/23 14:26:44;;;;;;;5.78;3.22;;;11.90;54.20;;;;;;6274565;22;20027;-89
2021/11/23 14:29:36;;;;;;;3.42;2.95;;;11.90;53.90;;;;;;6256972;22;20341;-86
2021/11/23 14:32:23;;;;;;;3.42;2.75;;;11.80;54.10;;;;;;6261973;22;20034;-87
2021/11/23 14:35:11;;;;;;;5.85;3.45;;;11.50;54.30;;;;;;6239209;22;20024;-87
2021/11/23 14:38:00;;;;;;;4.40;2.65;;;11.20;54.80;;;;;;6255142;22;20085;-89
2021/11/23 14:40:48;;;;;;;4.28;3.10;;;11.10;55.60;;;;;;6249872;22;20079;-88
2021/11/23 14:43:35;;;;;;;4.40;2.95;;;11.00;55.80;;;;;;6274252;22;20107;-90
2021/11/23 14:46:27;;;;;;;3.60;3.20;;;10.80;56.00;;;;;;6252694;22;20153;-90
2021/11/23 14:49:14;;;;;;;5.07;3.10;;;10.50;56.40;;;;;;6254915;22;20092;-89
2021/11/23 14:52:08;;;;;;;6.78;3.30;;;9.90;57.70;;;;;;6255281;22;20020;-88
2021/11/23 14:55:04;;;;;;;8.43;3.50;;;9.30;59.10;;;;;;6254328;22;20019;-90
2021/11/23 14:58:01;;;;;;;6.30;3.30;;;8.40;62.20;;;;;;6253101;22;20508;-90
2021/11/23 15:00:51;;;;;;;5.25;3.33;;;8.00;64.50;;;;;;6233209;22;20108;-89
2021/11/23 15:03:38;;;;;;;5.18;3.67;;;7.50;66.50;;;;;;6249135;22;20038;-88
2021/11/23 15:06:26;;;;;;;6.85;4.53;;;6.90;69.50;;;;;;6271352;22;20031;-86
2021/11/23 15:09:13;;;;;;;8.90;5.20;;;6.40;72.30;;;;;;6251624;22;20057;-88
2021/11/23 15:12:01;;;;;;;6.28;4.72;;;5.90;75.20;;;;;;6212006;22;20020;-90
2021/11/23 15:14:51;;;;;;;8.13;5.18;;;5.50;78.60;;;;;;6253834;22;20025;-88
2021/11/23 15:17:44;;;;;;;6.90;4.88;;;5.00;81.70;;;;;;6230568;22;20031;-86
2021/11/23 15:20:31;;;;;;;;;;;4.70;84.20;;;;;;6235185;22;20027;-90
2021/11/23 15:23:21;;;;;;;9.60;5.88;;;4.30;86.60;;;;;;6253188;22;20026;-88
2021/11/23 15:26:09;;;;;;;9.25;5.85;;;4.00;90.00;;;;;;6235197;22;20392;-87
2021/11/23 15:28:56;;;;;;;10.23;6.60;;;3.60;92.30;;;;;;6231312;22;20027;-87
2021/11/23 15:31:45;;;;;;;13.13;6.50;;;3.30;95.50;;;;;;6234571;22;20433;-87
2021/11/23 15:34:41;;;;;;;8.85;6.00;;;3.00;99.80;;;;;;6276568;22;20097;-88
2021/11/23 15:37:33;;;;;;;10.63;6.03;;;2.80;99.90;;;;;;6256071;22;20024;-88